Time;durP1;ratioP1;P1;durP2;ratioP2;P2;SDS_P1;SDS_P2;PMS_P1;PMS_P2;Temp;Humidity;BMP_temperature;BMP_pressure;BME280_temperature;BME280_humidity;BME280_pressure;Samples;Min_cycle;Max_cycle;Signal;HPM_P1;HPM_P2
2022/04/06 00:00:48;;;;;;;45.75;33.95;;;;;;;12.90;52.43;100985.38;5033993;28;20383;-63
2022/04/06 00:03:14;;;;;;;44.08;34.13;;;;;;;12.89;52.45;100983.66;5034075;28;20048;-63
2022/04/06 00:05:41;;;;;;;45.92;34.08;;;;;;;12.84;52.37;100983.94;5033846;28;20041;-63
2022/04/06 00:08:08;;;;;;;47.40;34.42;;;;;;;12.84;52.36;100980.47;5032629;28;20080;-62
2022/04/06 00:10:34;;;;;;;44.70;33.53;;;;;;;12.82;52.29;100975.28;5033658;28;20092;-63
2022/04/06 00:13:01;;;;;;;44.55;34.35;;;;;;;12.81;52.28;100976.25;5034042;28;20045;-64
2022/04/06 00:15:29;;;;;;;46.53;34.10;;;;;;;12.78;52.31;100972.97;5033272;28;20053;-63
2022/04/06 00:17:55;;;;;;;46.00;34.85;;;;;;;12.72;52.27;100968.91;5032816;28;20045;-67
2022/04/06 00:20:23;;;;;;;45.10;33.88;;;;;;;12.73;52.33;100974.09;5033060;28;20159;-63
2022/04/06 00:22:50;;;;;;;44.80;33.83;;;;;;;12.70;52.48;100965.53;5033575;28;20095;-63
2022/04/06 00:25:16;;;;;;;47.60;34.22;;;;;;;12.68;52.41;100973.50;5032622;28;20077;-65
2022/04/06 00:27:43;;;;;;;46.05;34.92;;;;;;;12.64;52.47;100963.28;5033481;28;20042;-62
2022/04/06 00:30:11;;;;;;;46.65;35.50;;;;;;;12.63;52.36;100966.84;5032726;28;20078;-62
2022/04/06 00:32:37;;;;;;;48.15;36.70;;;;;;;12.59;52.47;100966.19;5033286;28;20053;-63
2022/04/06 00:37:50;;;;;;;49.03;35.78;;;;;;;12.51;52.54;100964.03;5033075;28;20501;-65
2022/04/06 00:40:19;;;;;;;46.80;34.70;;;;;;;12.50;52.54;100959.69;5032036;28;20057;-63
2022/04/06 00:42:46;;;;;;;45.47;34.33;;;;;;;12.46;52.60;100968.72;5033247;28;20045;-63
2022/04/06 00:45:13;;;;;;;48.30;35.10;;;;;;;12.45;52.66;100968.84;5033209;28;20057;-63
2022/04/06 00:47:40;;;;;;;49.10;36.05;;;;;;;12.40;52.63;100963.84;5032973;28;20485;-62
2022/04/06 00:50:07;;;;;;;45.08;34.72;;;;;;;12.38;52.75;100963.09;5032997;28;20453;-62
2022/04/06 00:52:36;;;;;;;47.13;35.35;;;;;;;12.34;52.79;100958.94;5032945;28;20513;-64
2022/04/06 00:55:03;;;;;;;48.28;35.22;;;;;;;12.33;52.78;100957.25;5033055;28;20095;-62
2022/04/06 00:57:30;;;;;;;45.40;34.28;;;;;;;12.33;52.88;100958.09;5031588;28;20095;-63
2022/04/06 00:59:57;;;;;;;48.33;35.90;;;;;;;12.33;52.81;100946.72;5032989;28;20069;-62
2022/04/06 01:02:24;;;;;;;48.08;35.47;;;;;;;12.30;52.89;100950.38;5032251;28;20073;-62
2022/04/06 01:04:51;;;;;;;50.58;37.58;;;;;;;12.30;52.88;100947.75;5032690;28;20052;-62
2022/04/06 01:07:20;;;;;;;49.83;36.08;;;;;;;12.28;52.96;100951.41;5032689;28;20050;-62
2022/04/06 01:09:47;;;;;;;49.70;35.78;;;;;;;12.27;52.85;100952.38;5032827;28;20069;-62
2022/04/06 01:12:14;;;;;;;48.05;35.63;;;;;;;12.21;53.13;100949.19;5032781;28;20046;-62
2022/04/06 01:14:41;;;;;;;48.17;35.55;;;;;;;12.18;53.17;100951.97;5031365;28;20073;-63
2022/04/06 01:17:09;;;;;;;47.53;35.20;;;;;;;12.14;53.24;100950.47;5032840;28;20049;-62
2022/04/06 01:19:38;;;;;;;47.63;36.17;;;;;;;12.14;53.20;100945.22;5032586;28;20041;-63
2022/04/06 01:22:13;;;;;;;50.42;36.63;;;;;;;12.12;53.22;100944.44;5032552;28;20053;-65
2022/04/06 01:24:41;;;;;;;49.95;36.03;;;;;;;12.09;53.22;100945.47;5031805;28;20454;-62
2022/04/06 01:27:09;;;;;;;45.63;34.80;;;;;;;12.07;53.10;100941.25;5032501;28;20141;-63
2022/04/06 01:29:35;;;;;;;48.17;35.47;;;;;;;12.04;53.05;100939.66;5032254;28;20046;-65
2022/04/06 01:32:12;;;;;;;47.72;35.08;;;;;;;12.05;53.08;100930.00;5031234;28;20425;-63
2022/04/06 01:34:49;;;;;;;47.10;35.42;;;;;;;12.01;53.09;100926.69;5032152;28;20096;-62
2022/04/06 01:37:28;;;;;;;44.53;33.75;;;;;;;12.00;53.12;100934.66;5031878;28;20049;-63
2022/04/06 01:40:09;;;;;;;47.97;35.60;;;;;;;11.99;53.02;100932.97;5031812;28;20049;-62
2022/04/06 01:42:40;;;;;;;47.20;34.72;;;;;;;12.03;52.83;100934.50;5031992;28;20452;-63
2022/04/06 01:45:08;;;;;;;46.15;34.75;;;;;;;12.03;52.96;100929.22;5032419;28;20107;-62
2022/04/06 01:47:35;;;;;;;46.63;34.47;;;;;;;12.00;53.17;100930.25;5032113;28;20084;-63
2022/04/06 01:52:49;;;;;;;50.55;35.28;;;;;;;12.01;53.04;100931.09;5032294;28;20051;-64
2022/04/06 01:55:16;;;;;;;48.67;34.67;;;;;;;12.03;52.89;100930.06;5032113;28;20092;-63
2022/04/06 01:57:43;;;;;;;48.72;35.35;;;;;;;11.98;52.98;100924.22;5032285;28;20139;-63
2022/04/06 02:00:16;;;;;;;47.78;34.72;;;;;;;11.98;52.98;100921.59;5032070;28;20052;-64
2022/04/06 02:02:50;;;;;;;48.72;34.92;;;;;;;11.95;52.91;100924.41;5031940;28;20478;-63
2022/04/06 02:05:18;;;;;;;48.33;35.63;;;;;;;11.95;52.85;100921.75;5030111;28;20053;-62
2022/04/06 02:07:46;;;;;;;47.45;35.55;;;;;;;11.90;52.94;100916.78;5032213;28;20056;-62
2022/04/06 02:10:14;;;;;;;46.38;35.03;;;;;;;11.87;53.09;100918.72;5032051;28;20045;-62
2022/04/06 02:12:42;;;;;;;45.60;34.75;;;;;;;11.86;53.04;100911.78;5031858;28;20046;-63
2022/04/06 02:15:10;;;;;;;46.30;33.22;;;;;;;11.85;53.04;100918.00;5031900;28;20053;-62
2022/04/06 02:17:37;;;;;;;48.38;36.03;;;;;;;11.83;53.13;100919.84;5031941;28;20045;-63
2022/04/06 02:20:04;;;;;;;48.55;36.53;;;;;;;11.81;53.03;100916.47;5032015;28;20155;-62
2022/04/06 02:22:31;;;;;;;46.53;34.63;;;;;;;11.80;53.18;100912.16;5030580;28;20108;-66
2022/04/06 02:24:58;;;;;;;49.85;35.75;;;;;;;11.77;53.08;100913.19;5031912;28;20506;-63
2022/04/06 02:27:24;;;;;;;48.08;34.90;;;;;;;11.76;53.14;100916.75;5031900;28;20084;-63
2022/04/06 02:29:51;;;;;;;54.78;35.30;;;;;;;11.74;53.21;100910.72;5031885;28;20049;-63
2022/04/06 02:32:18;;;;;;;50.40;35.80;;;;;;;11.72;53.18;100908.19;5031843;28;20045;-63
2022/04/06 02:34:50;;;;;;;48.58;35.75;;;;;;;11.70;53.45;100917.94;5031839;28;20107;-62
2022/04/06 02:37:17;;;;;;;48.00;35.05;;;;;;;11.69;53.34;100910.97;5030243;28;20049;-63
2022/04/06 02:39:44;;;;;;;51.00;35.30;;;;;;;11.67;53.51;100912.00;5031895;28;20100;-63
2022/04/06 02:42:10;;;;;;;49.28;36.15;;;;;;;11.69;53.32;100912.78;5031588;28;20092;-63
2022/04/06 02:44:39;;;;;;;46.58;34.70;;;;;;;11.64;53.35;100915.66;5031558;28;20049;-62
2022/04/06 02:47:05;;;;;;;47.75;35.70;;;;;;;11.63;53.37;100918.38;5031769;28;20045;-63
2022/04/06 02:49:32;;;;;;;48.10;34.33;;;;;;;11.60;53.55;100915.03;5031572;28;20069;-63
2022/04/06 02:51:59;;;;;;;47.08;34.67;;;;;;;11.60;53.43;100914.16;5031659;28;20050;-62
2022/04/06 02:54:25;;;;;;;47.42;35.42;;;;;;;11.60;53.32;100920.28;5030001;28;20490;-65
2022/04/06 02:56:52;;;;;;;48.65;36.20;;;;;;;11.57;53.43;100907.31;5031772;28;20486;-62
2022/04/06 02:59:18;;;;;;;47.28;35.30;;;;;;;11.58;53.44;100910.78;5031441;28;20076;-62
2022/04/06 03:01:45;;;;;;;49.90;36.78;;;;;;;11.58;53.42;100902.91;5026735;28;20046;-63
2022/04/06 03:04:12;;;;;;;49.17;36.50;;;;;;;11.56;53.54;100905.59;5019777;28;20073;-62
2022/04/06 03:06:40;;;;;;;49.50;36.78;;;;;;;11.55;53.39;100900.44;5011568;28;20053;-62
2022/04/06 03:09:07;;;;;;;49.22;36.60;;;;;;;11.55;53.53;100895.19;5012163;28;20042;-62
2022/04/06 03:11:35;;;;;;;51.80;36.85;;;;;;;11.53;53.65;100895.28;5028357;28;20112;-62
2022/04/06 03:14:03;;;;;;;52.75;36.22;;;;;;;11.49;53.65;100895.53;5031615;28;20045;-65
2022/04/06 03:16:29;;;;;;;54.40;37.40;;;;;;;11.49;53.86;100885.91;5031537;28;20088;-63
2022/04/06 03:18:57;;;;;;;51.35;37.08;;;;;;;11.50;53.75;100886.72;5031608;28;20049;-62
2022/04/06 03:21:23;;;;;;;51.92;37.10;;;;;;;11.47;53.93;100881.66;5031320;28;20787;-62
2022/04/06 03:23:50;;;;;;;51.45;36.22;;;;;;;11.46;54.05;100880.78;5031920;28;20057;-62
2022/04/06 03:26:16;;;;;;;50.15;37.22;;;;;;;11.43;54.17;100884.44;5030394;28;20122;-63
2022/04/06 03:28:43;;;;;;;48.08;36.75;;;;;;;11.41;54.20;100886.34;5031351;28;20076;-62
2022/04/06 03:31:10;;;;;;;54.42;38.30;;;;;;;11.42;54.38;100893.25;5031062;28;20559;-62
2022/04/06 03:33:37;;;;;;;50.60;38.55;;;;;;;11.38;54.36;100885.66;5030953;28;20136;-62
2022/04/06 03:36:04;;;;;;;51.28;36.85;;;;;;;11.38;54.36;100880.41;5031305;28;20096;-62
2022/04/06 03:38:31;;;;;;;50.13;37.58;;;;;;;11.40;54.33;100887.28;5031205;28;20079;-63
2022/04/06 03:40:57;;;;;;;51.08;37.42;;;;;;;11.40;54.42;100887.28;5030856;28;20080;-62
2022/04/06 03:43:24;;;;;;;52.45;38.47;;;;;;;11.38;54.53;100888.28;5029986;28;20069;-62
2022/04/06 03:45:51;;;;;;;51.50;37.92;;;;;;;11.34;54.66;100885.00;5031097;28;20046;-62
2022/04/06 03:48:21;;;;;;;52.15;38.58;;;;;;;11.35;54.64;100888.44;5030920;28;20455;-62
2022/04/06 03:50:50;;;;;;;49.92;36.30;;;;;;;11.35;54.78;100891.94;5031286;28;20053;-63
2022/04/06 03:53:17;;;;;;;55.17;37.15;;;;;;;11.36;54.72;100890.16;5030797;28;20061;-63
2022/04/06 03:55:44;;;;;;;51.47;38.28;;;;;;;11.34;54.76;100892.00;5030851;28;20054;-62
2022/04/06 03:58:11;;;;;;;50.83;37.53;;;;;;;11.32;54.81;100886.84;5029796;28;20088;-62
2022/04/06 04:00:37;;;;;;;47.75;36.50;;;;;;;11.30;54.86;100885.25;5030616;28;20061;-63
2022/04/06 04:03:05;;;;;;;51.20;37.88;;;;;;;11.28;54.87;100891.44;5030789;28;20096;-63
2022/04/06 04:05:33;;;;;;;52.85;37.25;;;;;;;11.27;54.94;100881.88;5030674;28;20485;-63
2022/04/06 04:07:59;;;;;;;51.42;36.30;;;;;;;11.26;54.80;100880.19;5030515;28;20057;-63
2022/04/06 04:10:26;;;;;;;55.28;36.88;;;;;;;11.22;55.04;100878.69;5030562;28;20048;-62
2022/04/06 04:12:53;;;;;;;51.33;37.47;;;;;;;11.22;54.94;100877.81;5030261;28;20041;-62
2022/04/06 04:15:20;;;;;;;51.50;37.75;;;;;;;11.19;55.08;100878.00;5029558;28;20413;-62
2022/04/06 04:17:46;;;;;;;50.58;36.67;;;;;;;11.20;55.02;100879.66;5030483;28;20076;-63
2022/04/06 04:20:13;;;;;;;52.78;37.47;;;;;;;11.20;54.92;100874.41;5030581;28;20432;-63
2022/04/06 04:22:39;;;;;;;50.38;37.13;;;;;;;11.18;55.04;100877.13;5030133;28;20057;-62
2022/04/06 04:25:07;;;;;;;50.42;35.97;;;;;;;11.17;55.08;100879.84;5030430;28;20052;-63
2022/04/06 04:27:33;;;;;;;52.72;38.17;;;;;;;11.18;55.09;100877.13;5030160;28;20056;-62
2022/04/06 04:30:00;;;;;;;50.80;37.95;;;;;;;11.13;55.12;100880.97;5029951;28;20089;-62
2022/04/06 04:32:33;;;;;;;53.38;39.20;;;;;;;11.13;55.21;100875.72;5028698;28;20041;-62
2022/04/06 04:35:03;;;;;;;53.20;39.17;;;;;;;11.14;55.14;100875.63;5030152;28;20053;-63
2022/04/06 04:37:30;;;;;;;54.38;38.17;;;;;;;11.11;55.30;100860.88;5030389;28;20472;-63
2022/04/06 04:39:57;;;;;;;56.25;40.53;;;;;;;11.11;55.33;100875.81;5029721;28;20056;-63
2022/04/06 04:42:24;;;;;;;52.63;38.25;;;;;;;11.11;55.36;100881.91;5029786;28;20049;-62
2022/04/06 04:44:51;;;;;;;56.97;39.38;;;;;;;11.08;55.51;100881.22;5029978;28;20049;-63
2022/04/06 04:47:18;;;;;;;60.95;40.03;;;;;;;11.09;55.54;100877.66;5029717;28;20042;-62
2022/04/06 04:49:45;;;;;;;55.00;38.75;;;;;;;11.09;55.50;100882.91;5028871;28;20049;-62
2022/04/06 04:52:11;;;;;;;58.90;39.67;;;;;;;11.06;55.41;100877.84;5029520;28;20124;-65
2022/04/06 04:54:38;;;;;;;59.85;39.03;;;;;;;11.04;55.51;100888.41;5029410;28;20045;-63
2022/04/06 04:57:05;;;;;;;10.38;8.45;;;;;;;11.34;56.78;100890.25;5029059;28;20073;-62
2022/04/06 04:59:31;;;;;;;12.45;8.95;;;;;;;12.28;56.51;100888.25;5029705;28;20085;-62
2022/04/06 05:01:58;;;;;;;20.17;13.27;;;;;;;12.83;56.92;100886.59;5029499;28;20046;-62
2022/04/06 05:04:25;;;;;;;53.85;38.20;;;;;;;12.67;56.54;100892.84;5028314;28;20046;-63
2022/04/06 05:06:52;;;;;;;52.05;37.33;;;;;;;12.17;56.76;100886.31;5029546;28;20050;-65
2022/04/06 05:09:18;;;;;;;54.10;38.35;;;;;;;11.91;56.96;100893.97;5029308;28;20042;-64
2022/04/06 05:11:45;;;;;;;53.53;37.58;;;;;;;11.74;56.73;100887.94;5029607;28;20084;-64
2022/04/06 05:14:11;;;;;;;50.83;37.75;;;;;;;11.63;56.51;100900.00;5029419;28;20471;-64
2022/04/06 05:16:38;;;;;;;50.80;35.92;;;;;;;11.55;56.26;100892.56;5029385;28;20422;-64
2022/04/06 05:19:05;;;;;;;54.05;38.15;;;;;;;11.49;56.21;100892.91;5029584;28;20049;-64
2022/04/06 05:21:31;;;;;;;49.33;33.90;;;;;;;12.17;55.74;100896.84;5027810;28;20045;-61
2022/04/06 05:23:59;;;;;;;54.25;37.40;;;;;;;11.86;55.42;100894.22;5029179;28;20041;-63
2022/04/06 05:26:26;;;;;;;51.45;37.03;;;;;;;11.74;55.32;100898.44;5027289;28;20045;-64
2022/04/06 05:28:53;;;;;;;50.90;38.22;;;;;;;11.69;55.29;100894.38;5029264;28;20059;-65
2022/04/06 05:31:21;;;;;;;52.70;38.50;;;;;;;11.67;55.13;100902.38;5029230;28;20057;-63
2022/04/06 05:33:48;;;;;;;56.20;38.08;;;;;;;11.63;55.02;100894.75;5029005;28;20065;-63
2022/04/06 05:36:19;;;;;;;53.65;38.08;;;;;;;11.64;55.13;100897.25;5028730;28;20084;-64
2022/04/06 05:38:45;;;;;;;52.97;36.85;;;;;;;11.66;54.91;100900.66;5028072;28;20156;-62
2022/04/06 05:41:12;;;;;;;54.33;38.25;;;;;;;11.66;54.98;100912.97;5028603;28;20061;-63
2022/04/06 05:43:39;;;;;;;54.83;38.65;;;;;;;11.70;54.92;100914.47;5028799;28;20053;-64
2022/04/06 05:46:05;;;;;;;50.40;36.70;;;;;;;11.70;54.63;100909.22;5029075;28;20050;-63
2022/04/06 05:48:32;;;;;;;61.15;37.00;;;;;;;11.74;54.71;100905.47;5028735;28;20383;-63
2022/04/06 05:51:01;;;;;;;55.17;37.58;;;;;;;11.82;54.67;100905.88;5028978;28;20056;-64
2022/04/06 05:53:27;;;;;;;55.97;38.25;;;;;;;12.11;54.16;100905.91;5027756;28;20484;-64
2022/04/06 05:55:54;;;;;;;50.75;36.30;;;;;;;12.02;54.29;100907.31;5027135;28;20045;-64
2022/04/06 05:58:21;;;;;;;50.85;35.63;;;;;;;12.04;54.07;100917.78;5028147;28;20457;-64
2022/04/06 06:00:47;;;;;;;55.25;37.67;;;;;;;12.02;54.25;100919.63;5028730;28;20092;-64
2022/04/06 06:03:14;;;;;;;63.47;42.45;;;;;;;12.01;54.19;100917.94;5028503;28;20089;-64
2022/04/06 06:05:40;;;;;;;66.85;43.53;;;;;;;12.03;54.09;100922.16;5028875;28;20064;-64
2022/04/06 06:08:16;;;;;;;63.78;42.47;;;;;;;12.17;54.00;100918.72;5029046;28;20053;-63
2022/04/06 06:10:42;;;;;;;62.88;42.47;;;;;;;12.16;53.88;100918.81;5027856;28;20041;-64
2022/04/06 06:13:09;;;;;;;62.28;41.03;;;;;;;12.18;53.88;100923.03;5028714;28;20069;-63
2022/04/06 06:15:36;;;;;;;63.38;43.35;;;;;;;12.19;54.07;100922.09;5028417;28;20052;-63
2022/04/06 06:18:03;;;;;;;56.22;39.65;;;;;;;12.23;53.79;100926.22;5028606;28;20081;-64
2022/04/06 06:20:29;;;;;;;60.50;40.15;;;;;;;12.27;53.79;100923.44;5028481;28;20053;-64
2022/04/06 06:22:56;;;;;;;53.40;38.90;;;;;;;12.30;53.71;100931.13;5027616;28;20053;-64
2022/04/06 06:25:23;;;;;;;57.60;39.03;;;;;;;12.35;53.76;100931.69;5028363;28;20452;-64
2022/04/06 06:27:49;;;;;;;57.67;38.15;;;;;;;12.43;53.43;100928.59;5026878;28;20041;-63
2022/04/06 06:30:17;;;;;;;51.33;37.75;;;;;;;12.51;53.36;100928.97;5028400;28;20049;-64
2022/04/06 06:32:44;;;;;;;52.78;37.47;;;;;;;12.59;53.23;100931.97;5028410;28;20069;-64
2022/04/06 06:35:11;;;;;;;52.25;37.50;;;;;;;12.71;53.06;100936.47;5026029;28;20081;-62
2022/04/06 06:37:52;;;;;;;59.38;39.03;;;;;;;12.79;52.93;100937.78;5029789;28;20049;-62
2022/04/06 06:40:25;;;;;;;54.20;38.50;;;;;;;12.89;52.89;100937.09;5031091;28;20053;-64
2022/04/06 06:42:52;;;;;;;60.95;40.88;;;;;;;12.98;52.91;100929.56;5031714;28;20413;-62
2022/04/06 06:45:19;;;;;;;65.95;45.22;;;;;;;13.08;52.76;100930.66;5030614;28;20050;-62
2022/04/06 06:47:47;;;;;;;59.67;41.33;;;;;;;13.14;52.63;100922.38;5031176;28;20045;-63
2022/04/06 06:50:16;;;;;;;55.72;39.88;;;;;;;13.24;52.63;100925.22;5031428;28;20049;-62
2022/04/06 06:52:43;;;;;;;58.55;39.97;;;;;;;13.33;52.49;100926.41;5031906;28;20401;-62
2022/04/06 06:55:14;;;;;;;60.25;41.35;;;;;;;13.41;52.17;100924.19;5031434;28;20518;-62
2022/04/06 06:57:41;;;;;;;55.47;39.47;;;;;;;13.48;52.26;100922.81;5030772;28;20486;-62
2022/04/06 07:00:11;;;;;;;51.63;37.22;;;;;;;13.61;52.17;100922.84;5029900;28;20045;-63
2022/04/06 07:02:42;;;;;;;48.28;36.53;;;;;;;13.71;51.81;100917.78;5031042;28;20136;-62
2022/04/06 07:05:10;;;;;;;50.88;35.90;;;;;;;13.81;51.74;100907.47;5031234;28;20041;-63
2022/04/06 07:07:55;;;;;;;45.28;35.22;;;;;;;13.92;51.64;100906.75;5030508;28;20049;-62
2022/04/06 07:10:24;;;;;;;52.28;36.92;;;;;;;14.02;51.21;100908.66;5031256;28;20099;-63
2022/04/06 07:12:51;;;;;;;50.97;35.33;;;;;;;14.11;51.14;100911.63;5031157;28;20057;-63
2022/04/06 07:15:19;;;;;;;47.20;35.13;;;;;;;14.21;50.99;100907.38;5031345;28;20084;-63
2022/04/06 07:17:53;;;;;;;50.53;35.50;;;;;;;14.34;50.81;100917.94;5029678;28;20046;-62
2022/04/06 07:20:25;;;;;;;50.20;35.85;;;;;;;14.45;50.53;100907.47;5031007;28;20053;-62
2022/04/06 07:22:52;;;;;;;46.70;33.05;;;;;;;14.53;50.43;100909.56;5030832;28;20049;-63
2022/04/06 07:25:19;;;;;;;45.55;34.15;;;;;;;14.64;50.45;100909.69;5031327;28;20395;-63
2022/04/06 07:27:46;;;;;;;43.28;32.58;;;;;;;14.76;49.99;100909.75;5030646;28;20050;-63
2022/04/06 07:30:14;;;;;;;45.55;34.78;;;;;;;14.86;49.80;100913.44;5030545;28;20045;-63
2022/04/06 07:32:40;;;;;;;49.42;34.53;;;;;;;14.96;49.81;100905.69;5030513;28;20052;-63
2022/04/06 07:35:08;;;;;;;46.83;32.90;;;;;;;15.08;49.30;100901.28;5029294;28;20049;-63
2022/04/06 07:37:38;;;;;;;43.72;33.00;;;;;;;15.15;49.23;100898.09;5029697;28;20053;-62
2022/04/06 07:40:07;;;;;;;43.90;31.38;;;;;;;15.25;49.09;100895.63;5029719;28;20103;-62
2022/04/06 07:42:35;;;;;;;46.67;32.38;;;;;;;15.36;48.54;100900.09;5029944;28;20053;-62
2022/04/06 07:45:07;;;;;;;44.85;30.85;;;;;;;15.50;48.07;100905.22;5030342;28;20045;-63
2022/04/06 07:47:35;;;;;;;43.88;31.77;;;;;;;15.61;47.85;100892.97;5029167;28;20523;-63
2022/04/06 07:50:03;;;;;;;44.17;30.88;;;;;;;15.72;47.58;100900.94;5028344;28;20077;-62
2022/04/06 07:52:31;;;;;;;41.10;29.75;;;;;;;15.85;47.60;100895.59;5030032;28;20054;-63
2022/04/06 07:54:57;;;;;;;39.97;29.77;;;;;;;15.99;47.13;100894.53;5030207;28;20045;-62
2022/04/06 07:57:25;;;;;;;40.35;28.80;;;;;;;16.12;47.01;100897.06;5029410;28;20045;-63
2022/04/06 07:59:53;;;;;;;38.00;27.33;;;;;;;16.20;46.54;100891.16;5029613;28;20103;-62
2022/04/06 08:02:20;;;;;;;35.90;26.40;;;;;;;16.24;46.36;100889.94;5029666;28;20064;-62
2022/04/06 08:04:47;;;;;;;35.95;27.15;;;;;;;16.33;45.87;100883.94;5029777;28;20041;-62
2022/04/06 08:07:14;;;;;;;35.75;25.75;;;;;;;16.46;45.42;100892.59;5027739;28;20095;-62
2022/04/06 08:09:40;;;;;;;36.95;26.42;;;;;;;16.62;44.92;100888.72;5029538;28;20041;-62
2022/04/06 08:12:07;;;;;;;35.22;26.75;;;;;;;16.76;44.39;100884.97;5029945;28;20053;-62
2022/04/06 08:14:34;;;;;;;36.65;25.83;;;;;;;16.83;44.28;100877.38;5030198;28;20078;-63
2022/04/06 08:17:00;;;;;;;37.53;27.30;;;;;;;16.90;43.72;100874.09;5029289;28;20104;-62
2022/04/06 08:19:28;;;;;;;37.35;26.15;;;;;;;16.96;43.58;100880.72;5029975;28;20049;-62
2022/04/06 08:21:54;;;;;;;35.92;26.38;;;;;;;17.06;42.68;100875.53;5029816;28;20041;-62
2022/04/06 08:24:21;;;;;;;36.85;25.63;;;;;;;17.22;42.82;100883.91;5028434;28;20127;-62
2022/04/06 08:26:48;;;;;;;34.63;25.08;;;;;;;17.32;42.04;100875.16;5026420;28;20049;-62
2022/04/06 08:29:14;;;;;;;33.67;24.88;;;;;;;17.40;42.06;100884.19;5029545;28;20046;-62
2022/04/06 08:31:41;;;;;;;32.70;23.35;;;;;;;17.49;41.44;100879.91;5028825;28;20046;-62
2022/04/06 08:34:08;;;;;;;30.92;23.40;;;;;;;17.57;41.27;100882.78;5026818;28;20072;-63
2022/04/06 08:36:43;;;;;;;29.92;22.88;;;;;;;17.73;40.50;100878.81;5027947;28;20760;-63
2022/04/06 08:39:10;;;;;;;30.88;22.30;;;;;;;17.84;40.57;100878.75;5029121;28;20083;-62
2022/04/06 08:41:38;;;;;;;30.65;22.60;;;;;;;17.94;39.84;100882.31;5018742;28;20046;-62
2022/04/06 08:44:06;;;;;;;27.65;20.88;;;;;;;18.11;39.75;100877.38;5025344;28;20076;-62
2022/04/06 08:46:35;;;;;;;30.40;22.25;;;;;;;18.18;39.20;100880.34;5028328;28;20041;-62
2022/04/06 08:49:02;;;;;;;29.33;21.70;;;;;;;18.28;39.33;100871.44;5029099;28;20077;-62
2022/04/06 08:51:29;;;;;;;31.77;22.95;;;;;;;18.32;38.98;100863.19;5028927;28;20050;-62
2022/04/06 08:53:57;;;;;;;31.58;22.58;;;;;;;18.49;38.50;100859.91;5028886;28;20045;-62
2022/04/06 08:56:25;;;;;;;36.58;23.02;;;;;;;18.60;38.37;100859.78;5028464;28;20535;-62
2022/04/06 08:58:51;;;;;;;30.60;21.15;;;;;;;18.76;38.13;100866.38;5029007;28;20421;-64
2022/04/06 09:01:21;;;;;;;27.73;21.13;;;;;;;18.66;38.08;100866.34;5028900;28;20056;-62
2022/04/06 09:03:49;;;;;;;29.52;22.08;;;;;;;18.77;37.99;100868.91;5029108;28;20053;-62
2022/04/06 09:06:16;;;;;;;32.30;22.15;;;;;;;18.89;37.52;100863.47;5028683;28;20061;-63
2022/04/06 09:08:45;;;;;;;30.70;23.55;;;;;;;19.03;36.86;100873.75;5029202;28;20053;-62
2022/04/06 09:11:14;;;;;;;27.40;21.15;;;;;;;19.23;37.14;100876.38;5027597;28;20049;-62
2022/04/06 09:13:42;;;;;;;27.30;20.58;;;;;;;19.30;36.61;100866.88;5028483;28;20045;-62
2022/04/06 09:16:14;;;;;;;31.17;22.48;;;;;;;19.26;36.91;100868.13;5028582;28;20577;-63
2022/04/06 09:18:46;;;;;;;27.65;21.65;;;;;;;19.30;36.56;100868.69;5028786;28;20060;-62
2022/04/06 09:21:15;;;;;;;26.45;20.48;;;;;;;19.52;36.11;100868.38;5028632;28;20105;-62
2022/04/06 09:23:45;;;;;;;30.98;19.98;;;;;;;19.67;36.35;100868.78;5028225;28;20057;-62
2022/04/06 09:26:12;;;;;;;29.10;20.38;;;;;;;19.57;36.20;100873.28;5026865;28;20088;-62
2022/04/06 09:28:41;;;;;;;24.83;18.92;;;;;;;19.90;36.20;100863.16;5028511;28;20049;-62
2022/04/06 09:31:14;;;;;;;24.88;19.17;;;;;;;20.05;35.97;100867.00;5028370;28;20496;-62
2022/04/06 09:33:41;;;;;;;23.25;19.08;;;;;;;20.13;35.42;100871.59;5027077;28;20053;-62
2022/04/06 09:36:19;;;;;;;25.05;18.73;;;;;;;20.14;35.43;100883.13;5028003;28;20087;-63
2022/04/06 09:38:52;;;;;;;25.67;18.88;;;;;;;20.10;35.47;100871.91;5028672;28;20128;-62
2022/04/06 09:41:19;;;;;;;24.67;18.95;;;;;;;20.15;35.65;100872.31;5028467;28;20128;-62
2022/04/06 09:43:47;;;;;;;27.52;20.17;;;;;;;20.32;35.34;100860.03;5027152;28;20501;-62
2022/04/06 09:49:14;;;;;;;20.70;16.75;;;;;;;20.60;34.97;100862.69;5025227;28;20431;-61
2022/04/06 09:51:44;;;;;;;23.90;18.73;;;;;;;20.81;34.93;100870.44;5028226;28;20080;-62
2022/04/06 09:54:12;;;;;;;22.23;17.92;;;;;;;20.94;35.00;100864.72;5027753;28;20073;-61
2022/04/06 09:56:41;;;;;;;24.13;15.05;;;;;;;20.83;35.46;100867.63;5027317;28;20072;-62
2022/04/06 09:59:09;;;;;;;20.67;17.38;;;;;;;20.98;35.08;100858.09;5027841;28;20099;-62
2022/04/06 10:01:39;;;;;;;25.42;21.50;;;;;;;21.04;35.25;100859.34;5025593;28;20127;-62
2022/04/06 10:04:10;;;;;;;21.05;17.17;;;;;;;21.17;34.96;100848.25;5026334;28;20556;-64
2022/04/06 10:06:38;;;;;;;26.27;18.25;;;;;;;21.08;34.90;100855.34;5025482;28;20425;-62
2022/04/06 10:09:07;;;;;;;24.80;19.38;;;;;;;20.98;35.30;100855.41;5027589;28;20081;-62
2022/04/06 10:11:35;;;;;;;26.05;20.63;;;;;;;21.04;35.41;100846.81;5028657;28;20084;-62
2022/04/06 10:14:04;;;;;;;24.70;19.55;;;;;;;21.09;35.36;100840.16;5031768;28;20514;-62
2022/04/06 10:16:34;;;;;;;24.20;19.17;;;;;;;20.95;35.71;100831.72;5028984;28;20049;-65
2022/04/06 10:19:03;;;;;;;25.17;19.92;;;;;;;20.88;35.81;100841.31;5029770;28;20079;-64
2022/04/06 10:21:59;;;;;;;22.92;20.00;;;;;;;20.73;36.12;100830.34;5031445;28;20044;-64
2022/04/06 10:24:42;;;;;;;25.87;21.70;;;;;;;20.37;36.21;100833.75;5029797;28;20057;-65
2022/04/06 10:27:24;;;;;;;25.98;21.08;;;;;;;20.56;35.78;100824.81;5028593;28;20049;-65
2022/04/06 10:30:06;;;;;;;27.63;21.02;;;;;;;20.62;35.48;100823.38;5031736;28;20045;-64
2022/04/06 10:32:38;;;;;;;23.85;19.98;;;;;;;20.61;35.40;100823.50;5029317;28;20041;-65
2022/04/06 10:35:23;;;;;;;24.60;20.88;;;;;;;20.63;34.88;100816.22;5030732;28;20110;-64
2022/04/06 10:37:53;;;;;;;25.05;20.30;;;;;;;20.93;34.38;100817.69;5031794;28;20089;-64
2022/04/06 10:40:21;;;;;;;26.95;19.60;;;;;;;21.31;33.63;100809.50;5031632;28;20141;-64
2022/04/06 10:42:48;;;;;;;25.58;20.85;;;;;;;21.51;33.21;100804.81;5031813;28;20494;-64
2022/04/06 10:45:24;;;;;;;25.50;20.42;;;;;;;21.74;33.03;100793.59;5019978;28;20044;-63
2022/04/06 10:48:10;;;;;;;;;;;;;;;21.37;33.80;100798.22;5020559;28;20056;-64
2022/04/06 10:50:37;;;;;;;25.05;19.80;;;;;;;20.63;34.62;100793.06;5011683;28;19928;-65
2022/04/06 10:53:18;;;;;;;27.23;20.25;;;;;;;20.80;34.08;100794.06;5020400;28;20066;-65
2022/04/06 10:56:12;;;;;;;25.05;19.38;;;;;;;20.79;33.82;100791.56;5011235;28;20042;-64
2022/04/06 10:59:09;;;;;;;23.58;18.70;;;;;;;20.80;33.78;100777.25;5011199;28;20065;-64
2022/04/06 11:01:37;;;;;;;24.42;18.60;;;;;;;20.79;34.13;100770.25;5006342;28;20628;-64
2022/04/06 11:04:16;;;;;;;24.50;18.88;;;;;;;20.46;34.54;100768.06;5015304;28;20099;-65
2022/04/06 11:07:03;;;;;;;19.85;16.13;;;;;;;20.30;34.40;100755.41;5030934;28;20069;-64
2022/04/06 11:12:20;;;;;;;20.48;14.68;;;;;;;20.55;33.84;100755.66;5031300;28;20482;-64
2022/04/06 11:14:49;;;;;;;8.93;7.28;;;;;;;20.69;34.15;100747.09;5030860;28;20464;-62
2022/04/06 11:20:18;;;;;;;11.50;9.00;;;;;;;21.30;33.42;100723.22;5030566;28;20073;-63
2022/04/06 11:22:53;;;;;;;13.57;8.88;;;;;;;21.96;32.78;100720.06;5030353;28;20060;-62
2022/04/06 11:25:27;;;;;;;;;;;;;;;22.42;32.16;100717.00;5029903;28;20505;-62
2022/04/06 11:28:05;;;;;;;18.48;13.23;;;;;;;22.74;31.49;100713.53;5030303;28;20000;-62
2022/04/06 11:30:34;;;;;;;20.23;14.88;;;;;;;22.68;31.50;100703.50;5030687;28;20096;-61